Laramie Regional Airport
KLAR : now visible

Airfield :











YOU CAN JOIN US ON...

 
LOGIN :

Register | Disclaimer

   EN    FR    IT 

 









Legend :    VFR   Marginal VFR   IFR   Intensive IFR   Very Intensive IFR
Visi :
Ceiling :
>= 8 km
>= 3000ft
5 to 8 km
1000 to 3000 ft
1500m to 5 km
500 to 1000 ft
800 to 1500m
200 to 500 ft
< 800m
< 200 ft
Symbols :   Thunderstorms  Fog  Heavy snow  Heavy precipitations  Wind > 20 kt






- Airport Elevation : 7284 ft
- IATA code : LAR


KLAR - Laramie Regional

CURRENT METAR :
  • 291353Z AUTO 15005KT 10SM CLR 14/08 A3031 RMK AO2 SLP171 T01390078

EXPIRED METARs :
  • 291253Z AUTO 19008KT 10SM CLR 10/07 A3031 RMK AO2 SLP174 T01000072
  • 291153Z AUTO 19008KT 6SM BR CLR 07/05 A3030 RMK AO2 SLP178 T00670050 10111 20067 55005

TAF KLAR
Valid from the 29 at 12:00 until the 30 at 12:00 UTC


291120Z 2912/3012 16010KT P6SM SKC
FM291800 28010G17KT P6SM VCSH FEW090
FM292100 29013KT P6SM VCTS SCT200CB
FM300000 30010KT P6SM FEW200
FM300300 VRB05KT P6SM SCT200
KZDV FIR / North America



MET'MAP, your aeronautical weather chart ! - Copyright ORBIFLY December 2007 - Disclaimer

ORBIFLY MET'MAP TEAM :

Programming & Development : Alexandra Zaïnal
Concept & original design : Baudouin d'Aumeries
Assistance for programming : Marc-Olivier Méhu
Technical & hardware support : Manuel Goepfert

Contact : metmap@orbifly.com




SOURCES & CREDITS :

   NOAA       Earth
Advisory